Time,TemperatureF,DewpointF,PressureIn,WindDirection,WindDirectionDegrees,WindSpeedMPH,WindSpeedGustMPH,Humidity,HourlyPrecipIn,Conditions,Clouds,dailyrainin,SoftwareType,DateUTC
2013-05-08 00:02:00,53.0,52.0,29.15,North,0,0.0,0.0,98,0.00,,,0.08,,2013-05-08 04:02:00,
2013-05-08 00:13:00,53.0,52.0,29.15,North,0,0.0,0.0,98,0.00,,,0.08,,2013-05-08 04:13:00,
2013-05-08 00:23:00,53.0,52.0,29.15,North,0,0.0,0.0,98,0.00,,,0.08,,2013-05-08 04:23:00,
2013-05-08 00:33:00,53.0,52.0,29.15,North,0,0.0,0.0,98,0.00,,,0.08,,2013-05-08 04:33:00,
2013-05-08 00:43:00,53.0,52.0,29.15,North,0,0.0,0.0,98,0.00,,,0.08,,2013-05-08 04:43:00,
2013-05-08 00:53:00,53.0,52.0,29.15,North,0,0.0,0.0,98,0.00,,,0.08,,2013-05-08 04:53:00,
2013-05-08 01:02:00,52.0,51.0,29.15,North,0,0.0,0.0,98,0.00,,,0.08,,2013-05-08 05:02:00,
2013-05-08 01:12:00,52.0,51.0,29.15,North,0,0.0,0.0,98,0.00,,,0.08,,2013-05-08 05:12:00,
2013-05-08 01:22:00,53.0,52.0,29.15,North,0,0.0,0.0,98,0.00,,,0.08,,2013-05-08 05:22:00,
2013-05-08 01:32:00,53.0,52.0,29.15,North,0,0.0,0.0,98,0.00,,,0.08,,2013-05-08 05:32:00,
2013-05-08 01:42:00,53.0,52.0,29.15,North,0,0.0,0.0,98,0.00,,,0.08,,2013-05-08 05:42:00,
2013-05-08 01:52:00,52.0,51.0,29.15,North,0,0.0,0.0,98,0.00,,,0.08,,2013-05-08 05:52:00,
2013-05-08 02:02:00,51.0,50.0,29.15,North,0,0.0,0.0,98,0.00,,,0.08,,2013-05-08 06:02:00,
2013-05-08 02:12:00,51.0,50.0,29.15,North,0,0.0,0.0,98,0.00,,,0.08,,2013-05-08 06:12:00,
2013-05-08 02:22:00,51.0,50.0,29.12,North,0,0.0,0.0,98,0.00,,,0.08,,2013-05-08 06:22:00,
2013-05-08 02:32:00,51.0,50.0,29.12,North,0,0.0,0.0,98,0.00,,,0.08,,2013-05-08 06:32:00,
2013-05-08 02:42:00,51.0,50.0,29.12,North,0,0.0,0.0,98,0.00,,,0.08,,2013-05-08 06:42:00,
2013-05-08 02:52:00,50.0,49.0,29.12,North,0,0.0,0.0,98,0.00,,,0.08,,2013-05-08 06:52:00,
2013-05-08 03:02:00,50.0,49.0,29.12,North,0,0.0,0.0,98,0.00,,,0.08,,2013-05-08 07:02:00,
2013-05-08 03:11:00,50.0,49.0,29.12,North,0,0.0,0.0,98,0.00,,,0.08,,2013-05-08 07:11:00,
2013-05-08 03:22:00,49.0,48.0,29.12,North,0,0.0,0.0,98,0.00,,,0.08,,2013-05-08 07:22:00,
2013-05-08 03:32:00,49.0,48.0,29.12,North,0,0.0,0.0,98,0.00,,,0.08,,2013-05-08 07:32:00,
2013-05-08 03:42:00,49.0,48.0,29.12,North,0,0.0,0.0,98,0.00,,,0.08,,2013-05-08 07:42:00,
2013-05-08 03:52:00,49.0,48.0,29.12,North,0,0.0,0.0,98,0.00,,,0.08,,2013-05-08 07:52:00,
2013-05-08 04:02:00,49.0,48.0,29.12,North,0,0.0,0.0,98,0.00,,,0.08,,2013-05-08 08:02:00,
2013-05-08 04:12:00,49.0,48.0,29.12,North,0,0.0,0.0,98,0.00,,,0.08,,2013-05-08 08:12:00,
2013-05-08 04:22:00,49.0,48.0,29.12,North,0,0.0,0.0,98,0.00,,,0.08,,2013-05-08 08:22:00,
2013-05-08 04:32:00,49.0,48.0,29.12,North,0,0.0,0.0,98,0.00,,,0.08,,2013-05-08 08:32:00,
2013-05-08 04:42:00,49.0,48.0,29.12,North,0,0.0,0.0,98,0.00,,,0.08,,2013-05-08 08:42:00,
2013-05-08 04:52:00,49.0,48.0,29.12,North,0,0.0,0.0,98,0.00,,,0.08,,2013-05-08 08:52:00,
2013-05-08 05:02:00,49.0,48.0,29.12,North,0,0.0,0.0,98,0.00,,,0.08,,2013-05-08 09:02:00,
2013-05-08 05:11:00,49.0,48.0,29.12,North,0,0.0,0.0,98,0.00,,,0.08,,2013-05-08 09:11:00,
2013-05-08 05:21:00,49.0,48.0,29.12,North,0,0.0,0.0,98,0.00,,,0.08,,2013-05-08 09:21:00,
2013-05-08 05:32:00,48.0,47.0,29.15,North,0,0.0,0.0,98,0.00,,,0.08,,2013-05-08 09:32:00,
2013-05-08 05:42:00,48.0,47.0,29.15,North,0,0.0,0.0,98,0.00,,,0.08,,2013-05-08 09:42:00,
2013-05-08 05:52:00,48.0,47.0,29.12,North,0,0.0,0.0,98,0.00,,,0.08,,2013-05-08 09:52:00,
2013-05-08 06:02:00,48.0,47.0,29.12,North,0,0.0,0.0,98,0.00,,,0.08,,2013-05-08 10:02:00,
2013-05-08 06:12:00,48.0,47.0,29.12,North,0,0.0,0.0,98,0.00,,,0.08,,2013-05-08 10:12:00,
2013-05-08 06:23:00,48.0,47.0,29.15,North,0,0.0,0.0,98,0.00,,,0.08,,2013-05-08 10:23:00,
2013-05-08 06:33:00,47.0,46.0,29.15,North,0,0.0,0.0,98,0.00,,,0.08,,2013-05-08 10:33:00,
2013-05-08 06:42:00,47.0,46.0,29.15,North,0,0.0,0.0,98,0.00,,,0.08,,2013-05-08 10:42:00,
2013-05-08 06:52:00,47.0,46.0,29.15,North,0,0.0,0.0,98,0.00,,,0.08,,2013-05-08 10:52:00,
2013-05-08 07:02:00,48.0,47.0,29.15,North,0,0.0,0.0,98,0.00,,,0.08,,2013-05-08 11:02:00,
2013-05-08 07:11:00,48.0,47.0,29.15,North,0,0.0,0.0,98,0.00,,,0.08,,2013-05-08 11:11:00,
2013-05-08 07:22:00,48.0,47.0,29.15,North,0,0.0,0.0,98,0.00,,,0.08,,2013-05-08 11:22:00,
2013-05-08 07:32:00,48.0,47.0,29.15,North,0,0.0,0.0,98,0.00,,,0.08,,2013-05-08 11:32:00,
2013-05-08 07:42:00,48.0,47.0,29.15,North,0,0.0,0.0,98,0.00,,,0.08,,2013-05-08 11:42:00,
2013-05-08 07:52:00,49.0,48.0,29.18,North,0,0.0,0.0,98,0.00,,,0.08,,2013-05-08 11:52:00,
2013-05-08 08:02:00,49.0,48.0,29.18,North,0,0.0,0.0,98,0.00,,,0.08,,2013-05-08 12:02:00,
2013-05-08 08:11:00,49.0,48.0,29.18,North,0,0.0,0.0,98,0.00,,,0.08,,2013-05-08 12:11:00,
2013-05-08 08:21:00,52.0,51.0,29.18,East,96,3.0,4.0,98,0.00,,,0.08,,2013-05-08 12:21:00,
2013-05-08 08:32:00,58.0,57.0,29.18,North,0,0.0,5.0,98,0.00,,,0.08,,2013-05-08 12:32:00,
2013-05-08 08:42:00,58.0,57.0,29.18,North,0,0.0,5.0,98,0.00,,,0.08,,2013-05-08 12:42:00,
2013-05-08 08:52:00,58.0,57.0,29.21,ENE,67,4.0,5.0,97,0.00,,,0.08,,2013-05-08 12:52:00,
2013-05-08 09:01:00,59.0,54.0,29.21,North,0,0.0,6.0,84,0.00,,,0.08,,2013-05-08 13:01:00,
2013-05-08 09:12:00,59.0,54.0,29.21,North,0,0.0,6.0,84,0.00,,,0.08,,2013-05-08 13:12:00,
2013-05-08 09:21:00,64.0,53.0,29.21,ENE,69,4.0,6.0,68,0.00,,,0.08,,2013-05-08 13:21:00,
2013-05-08 09:32:00,64.0,53.0,29.21,ENE,69,4.0,6.0,68,0.00,,,0.08,,2013-05-08 13:32:00,
2013-05-08 09:42:00,64.0,53.0,29.21,ENE,69,4.0,6.0,68,0.00,,,0.08,,2013-05-08 13:42:00,
2013-05-08 09:52:00,73.0,52.0,29.21,NE,50,4.0,7.0,48,0.00,,,0.08,,2013-05-08 13:52:00,
2013-05-08 10:02:00,76.0,54.0,29.21,North,0,0.0,6.0,47,0.00,,,0.08,,2013-05-08 14:02:00,
2013-05-08 10:12:00,76.0,54.0,29.21,North,0,0.0,6.0,47,0.00,,,0.08,,2013-05-08 14:12:00,
2013-05-08 10:22:00,79.0,53.0,29.21,NE,45,5.0,7.0,41,0.00,,,0.08,,2013-05-08 14:22:00,
2013-05-08 10:32:00,83.0,55.0,29.21,NE,45,4.0,7.0,39,0.00,,,0.08,,2013-05-08 14:32:00,
2013-05-08 10:42:00,83.0,55.0,29.21,NE,45,4.0,7.0,39,0.00,,,0.08,,2013-05-08 14:42:00,
2013-05-08 10:52:00,83.0,55.0,29.21,ENE,60,4.0,7.0,38,0.00,,,0.08,,2013-05-08 14:52:00,
2013-05-08 11:02:00,78.0,54.0,29.21,ENE,61,6.0,7.0,43,0.00,,,0.08,,2013-05-08 15:02:00,
2013-05-08 11:11:00,78.0,54.0,29.21,ENE,61,6.0,7.0,43,0.00,,,0.08,,2013-05-08 15:11:00,
2013-05-08 11:22:00,74.0,56.0,29.21,ENE,62,5.0,7.0,53,0.00,,,0.08,,2013-05-08 15:22:00,
2013-05-08 11:33:00,74.0,56.0,29.21,ENE,62,5.0,7.0,53,0.00,,,0.08,,2013-05-08 15:33:00,
2013-05-08 11:42:00,74.0,56.0,29.21,ENE,62,5.0,7.0,53,0.00,,,0.08,,2013-05-08 15:42:00,
2013-05-08 11:52:00,72.0,57.0,29.21,North,0,0.0,6.0,59,0.00,,,0.08,,2013-05-08 15:52:00,
2013-05-08 12:03:00,73.0,54.0,29.21,ENE,67,6.0,9.0,52,0.00,,,0.08,,2013-05-08 16:03:00,
2013-05-08 12:12:00,73.0,54.0,29.21,ENE,67,6.0,9.0,52,0.00,,,0.08,,2013-05-08 16:12:00,
2013-05-08 12:23:00,73.0,55.0,29.21,East,85,4.0,6.0,53,0.00,,,0.08,,2013-05-08 16:23:00,
2013-05-08 12:33:00,73.0,56.0,29.21,ENE,67,4.0,6.0,55,0.00,,,0.08,,2013-05-08 16:33:00,
2013-05-08 12:42:00,73.0,56.0,29.21,ENE,67,4.0,6.0,55,0.00,,,0.08,,2013-05-08 16:42:00,
2013-05-08 12:52:00,76.0,57.0,29.21,North,0,0.0,6.0,52,0.00,,,0.08,,2013-05-08 16:52:00,
2013-05-08 13:02:00,75.0,55.0,29.21,ENE,63,6.0,7.0,49,0.00,,,0.08,,2013-05-08 17:02:00,
2013-05-08 13:12:00,75.0,55.0,29.21,ENE,63,6.0,7.0,49,0.00,,,0.08,,2013-05-08 17:12:00,
2013-05-08 13:22:00,76.0,55.0,29.21,ENE,77,5.0,8.0,48,0.00,,,0.08,,2013-05-08 17:22:00,
2013-05-08 13:32:00,76.0,55.0,29.21,ENE,77,5.0,8.0,48,0.00,,,0.08,,2013-05-08 17:32:00,
2013-05-08 13:41:00,76.0,55.0,29.21,ENE,77,5.0,8.0,48,0.00,,,0.08,,2013-05-08 17:41:00,
2013-05-08 13:52:00,75.0,55.0,29.21,ENE,66,4.0,5.0,49,0.00,,,0.08,,2013-05-08 17:52:00,
2013-05-08 14:02:00,75.0,55.0,29.21,ENE,66,4.0,5.0,49,0.00,,,0.08,,2013-05-08 18:02:00,
2013-05-08 14:12:00,75.0,55.0,29.21,ENE,66,4.0,5.0,49,0.00,,,0.08,,2013-05-08 18:12:00,
2013-05-08 14:21:00,75.0,55.0,29.21,ENE,66,4.0,5.0,49,0.00,,,0.08,,2013-05-08 18:21:00,
2013-05-08 14:32:00,75.0,55.0,29.21,ENE,66,4.0,5.0,49,0.00,,,0.08,,2013-05-08 18:32:00,
2013-05-08 14:52:00,76.0,54.0,29.18,ENE,60,4.0,6.0,47,0.00,,,0.08,,2013-05-08 18:52:00,
2013-05-08 15:02:00,76.0,54.0,29.18,ENE,75,4.0,6.0,47,0.00,,,0.08,,2013-05-08 19:02:00,
2013-05-08 15:11:00,76.0,54.0,29.18,ENE,75,4.0,6.0,47,0.00,,,0.08,,2013-05-08 19:11:00,
2013-05-08 15:22:00,76.0,54.0,29.18,ENE,75,4.0,6.0,47,0.00,,,0.08,,2013-05-08 19:22:00,
2013-05-08 15:32:00,75.0,53.0,29.18,NE,54,7.0,8.0,47,0.00,,,0.08,,2013-05-08 19:32:00,
2013-05-08 15:42:00,75.0,53.0,29.18,NE,54,7.0,8.0,47,0.00,,,0.08,,2013-05-08 19:42:00,
2013-05-08 15:52:00,74.0,54.0,29.18,ENE,66,4.0,5.0,50,0.00,,,0.08,,2013-05-08 19:52:00,
2013-05-08 16:02:00,75.0,56.0,29.18,ENE,59,3.0,5.0,51,0.00,,,0.08,,2013-05-08 20:02:00,
2013-05-08 16:11:00,75.0,56.0,29.18,ENE,59,3.0,5.0,51,0.00,,,0.08,,2013-05-08 20:11:00,
2013-05-08 16:22:00,75.0,56.0,29.18,ENE,59,3.0,5.0,51,0.00,,,0.08,,2013-05-08 20:22:00,
2013-05-08 16:32:00,73.0,54.0,29.18,NE,44,3.0,5.0,51,0.00,,,0.08,,2013-05-08 20:32:00,
2013-05-08 16:42:00,72.0,54.0,29.15,North,0,0.0,6.0,53,0.00,,,0.08,,2013-05-08 20:42:00,
2013-05-08 16:52:00,72.0,54.0,29.15,North,0,0.0,6.0,53,0.00,,,0.08,,2013-05-08 20:52:00,
2013-05-08 17:02:00,74.0,55.0,29.15,NE,46,4.0,4.0,51,0.00,,,0.08,,2013-05-08 21:02:00,
2013-05-08 17:12:00,74.0,55.0,29.15,NE,46,4.0,4.0,51,0.00,,,0.08,,2013-05-08 21:12:00,
2013-05-08 17:21:00,74.0,53.0,29.15,ENE,74,4.0,6.0,48,0.00,,,0.08,,2013-05-08 21:21:00,
2013-05-08 17:33:00,74.0,51.0,29.15,ENE,72,5.0,7.0,45,0.00,,,0.08,,2013-05-08 21:33:00,
2013-05-08 17:43:00,73.0,53.0,29.15,ENE,69,4.0,6.0,49,0.00,,,0.08,,2013-05-08 21:43:00,
2013-05-08 17:53:00,73.0,53.0,29.15,ENE,69,4.0,6.0,49,0.00,,,0.08,,2013-05-08 21:53:00,
2013-05-08 18:03:00,73.0,53.0,29.15,ENE,69,4.0,6.0,49,0.00,,,0.08,,2013-05-08 22:03:00,
2013-05-08 18:12:00,73.0,53.0,29.15,ENE,69,4.0,6.0,49,0.00,,,0.08,,2013-05-08 22:12:00,
2013-05-08 18:22:00,73.0,53.0,29.15,ENE,78,5.0,11.0,50,0.00,,,0.08,,2013-05-08 22:22:00,
2013-05-08 18:33:00,70.0,54.0,29.15,NE,34,3.0,6.0,57,0.00,,,0.08,,2013-05-08 22:33:00,
2013-05-08 18:42:00,68.0,56.0,29.15,North,0,0.0,0.0,66,0.00,,,0.08,,2013-05-08 22:42:00,
2013-05-08 18:52:00,68.0,56.0,29.15,North,0,0.0,0.0,66,0.00,,,0.08,,2013-05-08 22:52:00,
2013-05-08 19:02:00,65.0,58.0,29.18,North,0,0.0,0.0,78,0.00,,,0.08,,2013-05-08 23:02:00,
2013-05-08 19:12:00,65.0,58.0,29.18,North,0,0.0,0.0,78,0.00,,,0.08,,2013-05-08 23:12:00,
2013-05-08 19:22:00,65.0,60.0,29.15,North,0,0.0,0.0,83,0.00,,,0.08,,2013-05-08 23:22:00,
2013-05-08 19:32:00,65.0,59.0,29.15,North,0,0.0,0.0,82,0.00,,,0.08,,2013-05-08 23:32:00,
2013-05-08 19:42:00,64.0,59.0,29.15,North,0,0.0,0.0,84,0.00,,,0.08,,2013-05-08 23:42:00,
2013-05-08 19:52:00,64.0,59.0,29.15,North,0,0.0,0.0,84,0.00,,,0.08,,2013-05-08 23:52:00,
2013-05-08 20:02:00,64.0,59.0,29.15,North,0,0.0,0.0,84,0.00,,,0.08,,2013-05-09 00:02:00,
2013-05-08 20:12:00,64.0,59.0,29.15,North,0,0.0,0.0,84,0.00,,,0.08,,2013-05-09 00:12:00,
2013-05-08 20:21:00,62.0,59.0,29.15,North,0,0.0,0.0,91,0.00,,,0.08,,2013-05-09 00:21:00,
2013-05-08 20:32:00,61.0,59.0,29.18,North,0,0.0,0.0,93,0.00,,,0.08,,2013-05-09 00:32:00,
2013-05-08 20:42:00,60.0,59.0,29.18,North,0,0.0,0.0,95,0.00,,,0.04,,2013-05-09 00:42:00,
2013-05-08 20:52:00,60.0,59.0,29.18,North,0,0.0,0.0,95,0.00,,,0.04,,2013-05-09 00:52:00,
2013-05-08 21:01:00,59.0,58.0,29.18,North,0,0.0,0.0,95,0.00,,,0.04,,2013-05-09 01:01:00,
2013-05-08 21:12:00,59.0,58.0,29.18,North,0,0.0,0.0,95,0.00,,,0.04,,2013-05-09 01:12:00,
2013-05-08 21:22:00,58.0,57.0,29.18,North,0,0.0,0.0,97,0.00,,,0.04,,2013-05-09 01:22:00,
2013-05-08 21:32:00,58.0,57.0,29.18,North,0,0.0,0.0,97,0.00,,,0.04,,2013-05-09 01:32:00,
2013-05-08 21:42:00,57.0,56.0,29.18,North,0,0.0,0.0,98,0.00,,,0.00,,2013-05-09 01:42:00,
2013-05-08 21:53:00,57.0,56.0,29.18,North,0,0.0,0.0,98,0.00,,,0.00,,2013-05-09 01:53:00,
2013-05-08 22:02:00,57.0,56.0,29.21,North,0,0.0,0.0,98,0.00,,,0.00,,2013-05-09 02:02:00,
2013-05-08 22:12:00,57.0,56.0,29.21,North,0,0.0,0.0,98,0.00,,,0.00,,2013-05-09 02:12:00,
2013-05-08 22:22:00,57.0,56.0,29.21,North,0,0.0,0.0,98,0.00,,,0.00,,2013-05-09 02:22:00,
2013-05-08 22:33:00,56.0,55.0,29.21,North,0,0.0,0.0,98,0.00,,,0.00,,2013-05-09 02:33:00,
2013-05-08 22:42:00,56.0,55.0,29.21,North,0,0.0,0.0,98,0.00,,,0.00,,2013-05-09 02:42:00,
2013-05-08 22:52:00,56.0,55.0,29.21,North,0,0.0,0.0,98,0.00,,,0.00,,2013-05-09 02:52:00,
2013-05-08 23:02:00,56.0,55.0,29.21,North,0,0.0,0.0,98,0.00,,,0.00,,2013-05-09 03:02:00,
2013-05-08 23:11:00,56.0,55.0,29.21,North,0,0.0,0.0,98,0.00,,,0.00,,2013-05-09 03:11:00,
2013-05-08 23:21:00,56.0,55.0,29.21,North,0,0.0,0.0,98,0.00,,,0.00,,2013-05-09 03:21:00,
2013-05-08 23:33:00,56.0,55.0,29.21,North,0,0.0,0.0,98,0.00,,,0.00,,2013-05-09 03:33:00,
2013-05-08 23:43:00,56.0,55.0,29.21,North,0,0.0,0.0,98,0.00,,,0.00,,2013-05-09 03:43:00,
2013-05-08 23:53:00,56.0,55.0,29.21,North,0,0.0,0.0,98,0.00,,,0.00,,2013-05-09 03:53:00,